sensor_id;sensor_type;location;lat;lon;timestamp;temperature;humidity
20977;DHT22;10647;51.016;3.720;2023-04-25T00:01:07;10.90;99.90
20977;DHT22;10647;51.016;3.720;2023-04-25T00:03:35;10.90;99.90
20977;DHT22;10647;51.016;3.720;2023-04-25T00:06:03;10.90;99.90
20977;DHT22;10647;51.016;3.720;2023-04-25T00:08:30;10.90;99.90
20977;DHT22;10647;51.016;3.720;2023-04-25T00:10:58;10.90;99.90
20977;DHT22;10647;51.016;3.720;2023-04-25T00:13:26;10.90;99.90
20977;DHT22;10647;51.016;3.720;2023-04-25T00:15:54;10.90;99.90
20977;DHT22;10647;51.016;3.720;2023-04-25T00:18:22;10.90;99.90
20977;DHT22;10647;51.016;3.720;2023-04-25T00:20:50;10.90;99.90
20977;DHT22;10647;51.016;3.720;2023-04-25T00:23:17;10.90;99.90
20977;DHT22;10647;51.016;3.720;2023-04-25T00:25:46;10.90;99.90
20977;DHT22;10647;51.016;3.720;2023-04-25T00:28:14;10.90;99.90
20977;DHT22;10647;51.016;3.720;2023-04-25T00:30:43;10.90;99.90
20977;DHT22;10647;51.016;3.720;2023-04-25T00:33:10;10.90;99.90
20977;DHT22;10647;51.016;3.720;2023-04-25T00:35:39;10.90;99.90
20977;DHT22;10647;51.016;3.720;2023-04-25T00:38:06;10.90;99.90
20977;DHT22;10647;51.016;3.720;2023-04-25T00:40:34;10.90;99.90
20977;DHT22;10647;51.016;3.720;2023-04-25T00:43:02;10.90;99.90
20977;DHT22;10647;51.016;3.720;2023-04-25T00:45:31;10.90;99.90
20977;DHT22;10647;51.016;3.720;2023-04-25T00:47:59;10.90;99.90
20977;DHT22;10647;51.016;3.720;2023-04-25T00:50:27;10.90;99.90
20977;DHT22;10647;51.016;3.720;2023-04-25T00:52:55;10.90;99.90
20977;DHT22;10647;51.016;3.720;2023-04-25T00:55:23;10.80;99.90
20977;DHT22;10647;51.016;3.720;2023-04-25T00:57:50;10.90;99.90
20977;DHT22;10647;51.016;3.720;2023-04-25T01:00:18;10.80;99.90
20977;DHT22;10647;51.016;3.720;2023-04-25T01:02:46;10.80;99.90
20977;DHT22;10647;51.016;3.720;2023-04-25T01:05:14;10.80;99.90
20977;DHT22;10647;51.016;3.720;2023-04-25T01:07:42;10.80;99.90
20977;DHT22;10647;51.016;3.720;2023-04-25T01:10:09;10.80;99.90
20977;DHT22;10647;51.016;3.720;2023-04-25T01:12:37;10.70;99.90
20977;DHT22;10647;51.016;3.720;2023-04-25T01:15:06;10.60;99.90
20977;DHT22;10647;51.016;3.720;2023-04-25T01:17:35;10.50;99.90
20977;DHT22;10647;51.016;3.720;2023-04-25T01:20:06;10.50;99.90
20977;DHT22;10647;51.016;3.720;2023-04-25T01:22:35;10.40;99.90
20977;DHT22;10647;51.016;3.720;2023-04-25T01:25:03;10.40;99.90
20977;DHT22;10647;51.016;3.720;2023-04-25T01:27:31;10.50;99.90
20977;DHT22;10647;51.016;3.720;2023-04-25T01:29:59;10.50;99.90
20977;DHT22;10647;51.016;3.720;2023-04-25T01:32:27;10.40;99.90
20977;DHT22;10647;51.016;3.720;2023-04-25T01:34:55;10.40;99.90
20977;DHT22;10647;51.016;3.720;2023-04-25T01:37:22;10.40;99.90
20977;DHT22;10647;51.016;3.720;2023-04-25T01:39:50;10.40;99.90
20977;DHT22;10647;51.016;3.720;2023-04-25T01:42:19;10.30;99.90
20977;DHT22;10647;51.016;3.720;2023-04-25T01:44:46;10.30;99.90
20977;DHT22;10647;51.016;3.720;2023-04-25T01:47:14;10.40;99.90
20977;DHT22;10647;51.016;3.720;2023-04-25T01:49:42;10.40;99.90
20977;DHT22;10647;51.016;3.720;2023-04-25T01:52:10;10.50;99.90
20977;DHT22;10647;51.016;3.720;2023-04-25T01:54:37;10.30;99.90
20977;DHT22;10647;51.016;3.720;2023-04-25T01:57:06;10.40;99.90
20977;DHT22;10647;51.016;3.720;2023-04-25T01:59:34;10.30;99.90
20977;DHT22;10647;51.016;3.720;2023-04-25T02:02:02;10.30;99.90
20977;DHT22;10647;51.016;3.720;2023-04-25T02:04:32;10.20;99.90
20977;DHT22;10647;51.016;3.720;2023-04-25T02:07:02;10.10;99.90
20977;DHT22;10647;51.016;3.720;2023-04-25T02:09:30;10.00;99.90
20977;DHT22;10647;51.016;3.720;2023-04-25T02:11:58;10.00;99.90
20977;DHT22;10647;51.016;3.720;2023-04-25T02:14:26;10.00;99.90
20977;DHT22;10647;51.016;3.720;2023-04-25T02:16:55;10.00;99.90
20977;DHT22;10647;51.016;3.720;2023-04-25T02:19:24;10.00;99.90
20977;DHT22;10647;51.016;3.720;2023-04-25T02:21:51;10.00;99.90
20977;DHT22;10647;51.016;3.720;2023-04-25T02:24:20;10.00;99.90
20977;DHT22;10647;51.016;3.720;2023-04-25T02:26:48;10.10;99.90
20977;DHT22;10647;51.016;3.720;2023-04-25T02:29:16;10.00;99.90
20977;DHT22;10647;51.016;3.720;2023-04-25T02:31:44;9.90;99.90
20977;DHT22;10647;51.016;3.720;2023-04-25T02:34:11;9.90;99.90
20977;DHT22;10647;51.016;3.720;2023-04-25T02:36:39;9.90;99.90
20977;DHT22;10647;51.016;3.720;2023-04-25T02:39:06;10.00;99.90
20977;DHT22;10647;51.016;3.720;2023-04-25T02:41:34;10.00;99.90
20977;DHT22;10647;51.016;3.720;2023-04-25T02:44:01;10.00;99.90
20977;DHT22;10647;51.016;3.720;2023-04-25T02:46:28;10.00;99.90
20977;DHT22;10647;51.016;3.720;2023-04-25T02:48:56;9.90;99.90
20977;DHT22;10647;51.016;3.720;2023-04-25T02:51:24;9.90;99.90
20977;DHT22;10647;51.016;3.720;2023-04-25T02:53:52;10.00;99.90
20977;DHT22;10647;51.016;3.720;2023-04-25T02:56:20;10.00;99.90
20977;DHT22;10647;51.016;3.720;2023-04-25T02:58:47;9.90;99.90
20977;DHT22;10647;51.016;3.720;2023-04-25T03:01:16;9.90;99.90
20977;DHT22;10647;51.016;3.720;2023-04-25T03:03:43;9.90;99.90
20977;DHT22;10647;51.016;3.720;2023-04-25T03:06:11;9.80;99.90
20977;DHT22;10647;51.016;3.720;2023-04-25T03:08:38;9.90;99.90
20977;DHT22;10647;51.016;3.720;2023-04-25T03:11:06;9.90;99.90
20977;DHT22;10647;51.016;3.720;2023-04-25T03:13:33;9.90;99.90
20977;DHT22;10647;51.016;3.720;2023-04-25T03:16:01;9.80;99.90
20977;DHT22;10647;51.016;3.720;2023-04-25T03:18:28;9.80;99.90
20977;DHT22;10647;51.016;3.720;2023-04-25T03:20:56;9.70;99.90
20977;DHT22;10647;51.016;3.720;2023-04-25T03:23:25;9.70;99.90
20977;DHT22;10647;51.016;3.720;2023-04-25T03:25:52;9.70;99.90
20977;DHT22;10647;51.016;3.720;2023-04-25T03:28:20;9.70;99.90
20977;DHT22;10647;51.016;3.720;2023-04-25T03:30:47;9.60;99.90
20977;DHT22;10647;51.016;3.720;2023-04-25T03:33:15;9.50;99.90
20977;DHT22;10647;51.016;3.720;2023-04-25T03:35:42;9.60;99.90
20977;DHT22;10647;51.016;3.720;2023-04-25T03:38:10;9.60;99.90
20977;DHT22;10647;51.016;3.720;2023-04-25T03:40:37;9.50;99.90
20977;DHT22;10647;51.016;3.720;2023-04-25T03:43:05;9.50;99.90
20977;DHT22;10647;51.016;3.720;2023-04-25T03:45:32;9.50;99.90
20977;DHT22;10647;51.016;3.720;2023-04-25T03:48:00;9.60;99.90
20977;DHT22;10647;51.016;3.720;2023-04-25T03:50:27;9.60;99.90
20977;DHT22;10647;51.016;3.720;2023-04-25T03:52:55;9.60;99.90
20977;DHT22;10647;51.016;3.720;2023-04-25T03:55:23;9.70;99.90
20977;DHT22;10647;51.016;3.720;2023-04-25T03:57:50;9.60;99.90
20977;DHT22;10647;51.016;3.720;2023-04-25T04:00:18;9.70;99.90
20977;DHT22;10647;51.016;3.720;2023-04-25T04:02:45;9.70;99.90
20977;DHT22;10647;51.016;3.720;2023-04-25T04:05:13;9.60;99.90
20977;DHT22;10647;51.016;3.720;2023-04-25T04:07:40;9.60;99.90
20977;DHT22;10647;51.016;3.720;2023-04-25T04:10:11;9.70;99.90
20977;DHT22;10647;51.016;3.720;2023-04-25T04:12:39;9.70;99.90
20977;DHT22;10647;51.016;3.720;2023-04-25T04:15:07;9.70;99.90
20977;DHT22;10647;51.016;3.720;2023-04-25T04:17:35;9.70;99.90
20977;DHT22;10647;51.016;3.720;2023-04-25T04:20:02;9.60;99.90
20977;DHT22;10647;51.016;3.720;2023-04-25T04:22:49;9.70;99.90
20977;DHT22;10647;51.016;3.720;2023-04-25T04:25:17;9.60;99.90
20977;DHT22;10647;51.016;3.720;2023-04-25T04:27:45;9.50;99.90
20977;DHT22;10647;51.016;3.720;2023-04-25T04:30:12;9.60;99.90
20977;DHT22;10647;51.016;3.720;2023-04-25T04:32:40;9.70;99.90
20977;DHT22;10647;51.016;3.720;2023-04-25T04:35:08;9.70;99.90
20977;DHT22;10647;51.016;3.720;2023-04-25T04:37:37;9.70;99.90
20977;DHT22;10647;51.016;3.720;2023-04-25T04:40:05;9.70;99.90
20977;DHT22;10647;51.016;3.720;2023-04-25T04:42:33;9.60;99.90
20977;DHT22;10647;51.016;3.720;2023-04-25T04:45:04;9.70;99.90
20977;DHT22;10647;51.016;3.720;2023-04-25T04:47:38;9.60;99.90
20977;DHT22;10647;51.016;3.720;2023-04-25T04:50:08;9.60;99.90
20977;DHT22;10647;51.016;3.720;2023-04-25T04:52:38;9.70;99.90
20977;DHT22;10647;51.016;3.720;2023-04-25T04:55:06;9.70;99.90
20977;DHT22;10647;51.016;3.720;2023-04-25T04:57:35;9.60;99.90
20977;DHT22;10647;51.016;3.720;2023-04-25T05:00:04;9.50;99.90
20977;DHT22;10647;51.016;3.720;2023-04-25T05:02:33;9.50;99.90
20977;DHT22;10647;51.016;3.720;2023-04-25T05:05:07;9.50;99.90
20977;DHT22;10647;51.016;3.720;2023-04-25T05:07:35;9.50;99.90
20977;DHT22;10647;51.016;3.720;2023-04-25T05:10:02;9.50;99.90
20977;DHT22;10647;51.016;3.720;2023-04-25T05:12:30;9.60;99.90
20977;DHT22;10647;51.016;3.720;2023-04-25T05:14:57;9.60;99.90
20977;DHT22;10647;51.016;3.720;2023-04-25T05:17:27;9.70;99.90
20977;DHT22;10647;51.016;3.720;2023-04-25T05:19:54;9.80;99.90
20977;DHT22;10647;51.016;3.720;2023-04-25T05:22:22;10.00;99.90
20977;DHT22;10647;51.016;3.720;2023-04-25T05:24:50;10.00;99.90
20977;DHT22;10647;51.016;3.720;2023-04-25T05:27:18;10.10;99.90
20977;DHT22;10647;51.016;3.720;2023-04-25T05:29:46;10.10;99.90
20977;DHT22;10647;51.016;3.720;2023-04-25T05:32:16;10.20;99.90
20977;DHT22;10647;51.016;3.720;2023-04-25T05:34:44;10.20;99.90
20977;DHT22;10647;51.016;3.720;2023-04-25T05:37:12;10.30;99.90
20977;DHT22;10647;51.016;3.720;2023-04-25T05:39:39;10.30;99.90
20977;DHT22;10647;51.016;3.720;2023-04-25T05:42:07;10.40;99.90
20977;DHT22;10647;51.016;3.720;2023-04-25T05:44:34;10.40;99.90
20977;DHT22;10647;51.016;3.720;2023-04-25T05:47:02;10.50;99.90
20977;DHT22;10647;51.016;3.720;2023-04-25T05:49:32;10.60;99.90
20977;DHT22;10647;51.016;3.720;2023-04-25T05:51:59;10.70;99.90
20977;DHT22;10647;51.016;3.720;2023-04-25T05:54:27;10.70;99.90
20977;DHT22;10647;51.016;3.720;2023-04-25T05:56:57;10.80;99.90
20977;DHT22;10647;51.016;3.720;2023-04-25T05:59:24;10.80;99.90
20977;DHT22;10647;51.016;3.720;2023-04-25T06:01:54;10.80;99.90
20977;DHT22;10647;51.016;3.720;2023-04-25T06:04:22;10.70;99.90
20977;DHT22;10647;51.016;3.720;2023-04-25T06:06:51;10.80;99.90
20977;DHT22;10647;51.016;3.720;2023-04-25T06:09:18;11.00;99.90
20977;DHT22;10647;51.016;3.720;2023-04-25T06:11:46;11.10;99.90
20977;DHT22;10647;51.016;3.720;2023-04-25T06:14:13;11.10;99.90
20977;DHT22;10647;51.016;3.720;2023-04-25T06:16:41;11.20;99.90
20977;DHT22;10647;51.016;3.720;2023-04-25T06:19:09;11.30;99.90
20977;DHT22;10647;51.016;3.720;2023-04-25T06:21:36;11.40;99.90
20977;DHT22;10647;51.016;3.720;2023-04-25T06:24:04;11.20;99.90
20977;DHT22;10647;51.016;3.720;2023-04-25T06:26:32;11.20;99.90
20977;DHT22;10647;51.016;3.720;2023-04-25T06:29:01;11.40;99.90
20977;DHT22;10647;51.016;3.720;2023-04-25T06:31:30;11.50;99.90
20977;DHT22;10647;51.016;3.720;2023-04-25T06:33:59;11.60;99.90
20977;DHT22;10647;51.016;3.720;2023-04-25T06:36:28;11.60;99.90
20977;DHT22;10647;51.016;3.720;2023-04-25T06:38:55;11.70;99.90
20977;DHT22;10647;51.016;3.720;2023-04-25T06:41:23;11.90;99.90
20977;DHT22;10647;51.016;3.720;2023-04-25T06:43:51;11.90;99.90
20977;DHT22;10647;51.016;3.720;2023-04-25T06:46:18;11.90;99.90
20977;DHT22;10647;51.016;3.720;2023-04-25T06:48:46;12.00;99.90
20977;DHT22;10647;51.016;3.720;2023-04-25T06:51:14;11.90;99.90
20977;DHT22;10647;51.016;3.720;2023-04-25T06:53:42;12.10;99.90
20977;DHT22;10647;51.016;3.720;2023-04-25T06:56:09;12.20;99.90
20977;DHT22;10647;51.016;3.720;2023-04-25T06:58:37;12.30;99.90
20977;DHT22;10647;51.016;3.720;2023-04-25T07:01:05;12.40;99.90
20977;DHT22;10647;51.016;3.720;2023-04-25T07:03:32;12.40;99.90
20977;DHT22;10647;51.016;3.720;2023-04-25T07:06:01;12.40;99.90
20977;DHT22;10647;51.016;3.720;2023-04-25T07:08:29;12.30;99.90
20977;DHT22;10647;51.016;3.720;2023-04-25T07:10:57;12.20;99.90
20977;DHT22;10647;51.016;3.720;2023-04-25T07:13:24;12.20;99.90
20977;DHT22;10647;51.016;3.720;2023-04-25T07:15:53;12.20;99.90
20977;DHT22;10647;51.016;3.720;2023-04-25T07:18:21;12.00;99.90
20977;DHT22;10647;51.016;3.720;2023-04-25T07:20:48;11.90;99.90
20977;DHT22;10647;51.016;3.720;2023-04-25T07:23:16;12.10;99.90
20977;DHT22;10647;51.016;3.720;2023-04-25T07:25:44;12.30;99.90
20977;DHT22;10647;51.016;3.720;2023-04-25T07:28:12;12.40;99.90
20977;DHT22;10647;51.016;3.720;2023-04-25T07:30:40;12.20;99.90
20977;DHT22;10647;51.016;3.720;2023-04-25T07:33:07;12.20;99.90
20977;DHT22;10647;51.016;3.720;2023-04-25T07:35:35;12.30;99.90
20977;DHT22;10647;51.016;3.720;2023-04-25T07:38:02;12.30;99.90
20977;DHT22;10647;51.016;3.720;2023-04-25T07:40:30;12.20;99.90
20977;DHT22;10647;51.016;3.720;2023-04-25T07:42:59;12.10;99.90
20977;DHT22;10647;51.016;3.720;2023-04-25T07:45:26;12.00;99.90
20977;DHT22;10647;51.016;3.720;2023-04-25T07:47:54;12.30;99.90
20977;DHT22;10647;51.016;3.720;2023-04-25T07:50:21;12.60;99.90
20977;DHT22;10647;51.016;3.720;2023-04-25T07:52:49;12.90;99.90
20977;DHT22;10647;51.016;3.720;2023-04-25T07:55:16;13.10;99.90
20977;DHT22;10647;51.016;3.720;2023-04-25T07:57:44;12.90;99.90
20977;DHT22;10647;51.016;3.720;2023-04-25T08:00:12;12.80;99.90
20977;DHT22;10647;51.016;3.720;2023-04-25T08:02:41;13.10;99.90
20977;DHT22;10647;51.016;3.720;2023-04-25T08:05:09;13.50;99.90
20977;DHT22;10647;51.016;3.720;2023-04-25T08:07:39;14.00;99.90
20977;DHT22;10647;51.016;3.720;2023-04-25T08:10:07;14.40;99.90
20977;DHT22;10647;51.016;3.720;2023-04-25T08:12:35;14.90;99.90
20977;DHT22;10647;51.016;3.720;2023-04-25T08:15:03;15.10;99.90
20977;DHT22;10647;51.016;3.720;2023-04-25T08:17:31;15.10;99.90
20977;DHT22;10647;51.016;3.720;2023-04-25T08:19:58;14.80;99.90
20977;DHT22;10647;51.016;3.720;2023-04-25T08:22:26;14.50;99.90
20977;DHT22;10647;51.016;3.720;2023-04-25T08:24:54;14.30;99.90
20977;DHT22;10647;51.016;3.720;2023-04-25T08:27:21;14.00;99.90
20977;DHT22;10647;51.016;3.720;2023-04-25T08:29:50;13.80;99.90
20977;DHT22;10647;51.016;3.720;2023-04-25T08:32:19;13.40;99.90
20977;DHT22;10647;51.016;3.720;2023-04-25T08:34:47;13.30;99.90
20977;DHT22;10647;51.016;3.720;2023-04-25T08:37:16;13.20;99.90
20977;DHT22;10647;51.016;3.720;2023-04-25T08:39:45;13.30;99.90
20977;DHT22;10647;51.016;3.720;2023-04-25T08:42:15;13.50;99.90
20977;DHT22;10647;51.016;3.720;2023-04-25T08:44:43;13.90;99.90
20977;DHT22;10647;51.016;3.720;2023-04-25T08:47:11;14.10;99.90
20977;DHT22;10647;51.016;3.720;2023-04-25T08:49:41;14.30;99.90
20977;DHT22;10647;51.016;3.720;2023-04-25T08:52:09;14.70;99.90
20977;DHT22;10647;51.016;3.720;2023-04-25T08:54:43;14.70;99.90
20977;DHT22;10647;51.016;3.720;2023-04-25T08:57:13;14.90;99.90
20977;DHT22;10647;51.016;3.720;2023-04-25T08:59:43;14.60;99.90
20977;DHT22;10647;51.016;3.720;2023-04-25T09:02:12;14.60;99.90
20977;DHT22;10647;51.016;3.720;2023-04-25T09:04:43;14.60;99.90
20977;DHT22;10647;51.016;3.720;2023-04-25T09:07:11;15.00;99.90
20977;DHT22;10647;51.016;3.720;2023-04-25T09:09:40;15.50;99.90
20977;DHT22;10647;51.016;3.720;2023-04-25T09:12:10;15.70;99.90
20977;DHT22;10647;51.016;3.720;2023-04-25T09:14:38;15.90;99.90
20977;DHT22;10647;51.016;3.720;2023-04-25T09:17:06;15.80;99.90
20977;DHT22;10647;51.016;3.720;2023-04-25T09:19:36;15.60;99.90
20977;DHT22;10647;51.016;3.720;2023-04-25T09:22:07;15.20;99.90
20977;DHT22;10647;51.016;3.720;2023-04-25T09:24:40;14.40;99.90
20977;DHT22;10647;51.016;3.720;2023-04-25T09:27:12;14.10;99.90
20977;DHT22;10647;51.016;3.720;2023-04-25T09:29:42;14.10;99.90
20977;DHT22;10647;51.016;3.720;2023-04-25T09:32:21;14.00;99.90
20977;DHT22;10647;51.016;3.720;2023-04-25T09:34:51;14.00;99.90
20977;DHT22;10647;51.016;3.720;2023-04-25T09:37:27;14.10;99.90
20977;DHT22;10647;51.016;3.720;2023-04-25T09:39:56;14.40;99.90
20977;DHT22;10647;51.016;3.720;2023-04-25T09:42:26;14.40;99.90
20977;DHT22;10647;51.016;3.720;2023-04-25T09:44:57;14.30;99.90
20977;DHT22;10647;51.016;3.720;2023-04-25T09:47:25;14.30;99.90
20977;DHT22;10647;51.016;3.720;2023-04-25T09:49:55;14.20;99.90
20977;DHT22;10647;51.016;3.720;2023-04-25T09:52:24;14.30;99.90
20977;DHT22;10647;51.016;3.720;2023-04-25T09:54:52;15.00;99.90
20977;DHT22;10647;51.016;3.720;2023-04-25T09:57:24;15.50;99.90
20977;DHT22;10647;51.016;3.720;2023-04-25T09:59:57;16.30;99.90
20977;DHT22;10647;51.016;3.720;2023-04-25T10:02:27;17.10;99.90
20977;DHT22;10647;51.016;3.720;2023-04-25T10:04:55;17.40;98.90
20977;DHT22;10647;51.016;3.720;2023-04-25T10:07:30;17.20;98.20
20977;DHT22;10647;51.016;3.720;2023-04-25T10:10:03;17.00;98.10
20977;DHT22;10647;51.016;3.720;2023-04-25T10:12:32;16.90;97.10
20977;DHT22;10647;51.016;3.720;2023-04-25T10:15:00;17.00;96.10
20977;DHT22;10647;51.016;3.720;2023-04-25T10:17:28;16.80;95.90
20977;DHT22;10647;51.016;3.720;2023-04-25T10:19:56;16.80;95.50
20977;DHT22;10647;51.016;3.720;2023-04-25T10:22:46;16.80;95.10
20977;DHT22;10647;51.016;3.720;2023-04-25T10:25:17;16.60;94.70
20977;DHT22;10647;51.016;3.720;2023-04-25T10:27:45;16.60;94.70
20977;DHT22;10647;51.016;3.720;2023-04-25T10:30:15;16.50;94.70
20977;DHT22;10647;51.016;3.720;2023-04-25T10:32:43;16.90;95.00
20977;DHT22;10647;51.016;3.720;2023-04-25T10:35:16;17.40;94.50
20977;DHT22;10647;51.016;3.720;2023-04-25T10:41:13;16.90;95.20
20977;DHT22;10647;51.016;3.720;2023-04-25T10:43:48;16.40;95.20
20977;DHT22;10647;51.016;3.720;2023-04-25T10:46:28;16.00;95.80
20977;DHT22;10647;51.016;3.720;2023-04-25T10:49:02;15.90;96.30
20977;DHT22;10647;51.016;3.720;2023-04-25T10:51:32;16.20;96.00
20977;DHT22;10647;51.016;3.720;2023-04-25T10:54:04;16.60;95.80
20977;DHT22;10647;51.016;3.720;2023-04-25T10:56:41;16.70;95.30
20977;DHT22;10647;51.016;3.720;2023-04-25T10:59:17;16.90;95.00
20977;DHT22;10647;51.016;3.720;2023-04-25T11:01:54;16.90;94.50
20977;DHT22;10647;51.016;3.720;2023-04-25T11:04:30;16.90;94.30
20977;DHT22;10647;51.016;3.720;2023-04-25T11:10:03;17.90;93.20
20977;DHT22;10647;51.016;3.720;2023-04-25T11:12:32;18.40;92.50
20977;DHT22;10647;51.016;3.720;2023-04-25T11:15:01;18.40;91.70
20977;DHT22;10647;51.016;3.720;2023-04-25T11:17:31;18.60;90.70
20977;DHT22;10647;51.016;3.720;2023-04-25T11:19:59;18.50;89.90
20977;DHT22;10647;51.016;3.720;2023-04-25T11:22:29;18.30;88.80
20977;DHT22;10647;51.016;3.720;2023-04-25T11:24:56;18.10;88.60
20977;DHT22;10647;51.016;3.720;2023-04-25T11:27:29;18.20;88.30
20977;DHT22;10647;51.016;3.720;2023-04-25T11:29:56;18.00;87.60
20977;DHT22;10647;51.016;3.720;2023-04-25T11:32:36;17.80;88.00
20977;DHT22;10647;51.016;3.720;2023-04-25T11:35:05;17.90;87.60
20977;DHT22;10647;51.016;3.720;2023-04-25T11:37:32;18.10;86.30
20977;DHT22;10647;51.016;3.720;2023-04-25T11:40:01;17.90;81.30
20977;DHT22;10647;51.016;3.720;2023-04-25T11:42:30;18.10;81.80
20977;DHT22;10647;51.016;3.720;2023-04-25T11:44:58;18.20;81.20
20977;DHT22;10647;51.016;3.720;2023-04-25T11:50:20;18.00;82.00
20977;DHT22;10647;51.016;3.720;2023-04-25T11:52:48;18.20;83.10
20977;DHT22;10647;51.016;3.720;2023-04-25T11:55:18;18.30;83.80
20977;DHT22;10647;51.016;3.720;2023-04-25T11:57:48;18.40;84.00
20977;DHT22;10647;51.016;3.720;2023-04-25T12:00:19;18.40;84.30
20977;DHT22;10647;51.016;3.720;2023-04-25T12:02:51;18.50;84.20
20977;DHT22;10647;51.016;3.720;2023-04-25T12:05:20;18.80;84.80
20977;DHT22;10647;51.016;3.720;2023-04-25T12:07:47;19.50;83.60
20977;DHT22;10647;51.016;3.720;2023-04-25T12:10:17;20.10;80.30
20977;DHT22;10647;51.016;3.720;2023-04-25T12:12:46;20.10;78.80
20977;DHT22;10647;51.016;3.720;2023-04-25T12:15:27;19.70;77.00
20977;DHT22;10647;51.016;3.720;2023-04-25T12:17:57;19.30;76.70
20977;DHT22;10647;51.016;3.720;2023-04-25T12:20:32;19.10;76.90
20977;DHT22;10647;51.016;3.720;2023-04-25T12:23:05;19.40;78.00
20977;DHT22;10647;51.016;3.720;2023-04-25T12:25:40;19.00;77.80
20977;DHT22;10647;51.016;3.720;2023-04-25T12:28:27;18.70;78.50
20977;DHT22;10647;51.016;3.720;2023-04-25T12:33:30;18.40;80.20
20977;DHT22;10647;51.016;3.720;2023-04-25T12:36:01;18.90;77.80
20977;DHT22;10647;51.016;3.720;2023-04-25T12:38:42;19.20;78.20
20977;DHT22;10647;51.016;3.720;2023-04-25T12:41:09;19.10;78.00
20977;DHT22;10647;51.016;3.720;2023-04-25T12:43:40;18.60;77.40
20977;DHT22;10647;51.016;3.720;2023-04-25T12:46:08;18.30;77.60
20977;DHT22;10647;51.016;3.720;2023-04-25T12:48:40;18.10;76.60
20977;DHT22;10647;51.016;3.720;2023-04-25T12:51:08;18.00;77.50
20977;DHT22;10647;51.016;3.720;2023-04-25T12:53:36;18.20;76.60
20977;DHT22;10647;51.016;3.720;2023-04-25T12:56:05;18.50;76.30
20977;DHT22;10647;51.016;3.720;2023-04-25T12:58:33;18.90;76.00
20977;DHT22;10647;51.016;3.720;2023-04-25T13:01:01;18.50;77.80
20977;DHT22;10647;51.016;3.720;2023-04-25T13:03:28;17.90;78.60
20977;DHT22;10647;51.016;3.720;2023-04-25T13:05:56;19.30;79.00
20977;DHT22;10647;51.016;3.720;2023-04-25T13:08:23;24.70;73.10
20977;DHT22;10647;51.016;3.720;2023-04-25T13:10:51;27.40;65.60
20977;DHT22;10647;51.016;3.720;2023-04-25T13:13:18;26.10;62.70
20977;DHT22;10647;51.016;3.720;2023-04-25T13:15:46;23.50;65.60
20977;DHT22;10647;51.016;3.720;2023-04-25T13:18:15;21.90;67.00
20977;DHT22;10647;51.016;3.720;2023-04-25T13:20:43;21.00;69.40
20977;DHT22;10647;51.016;3.720;2023-04-25T13:23:11;20.40;70.20
20977;DHT22;10647;51.016;3.720;2023-04-25T13:25:38;19.80;70.80
20977;DHT22;10647;51.016;3.720;2023-04-25T13:28:06;19.40;71.70
20977;DHT22;10647;51.016;3.720;2023-04-25T13:30:34;21.90;70.60
20977;DHT22;10647;51.016;3.720;2023-04-25T13:33:01;21.90;66.70
20977;DHT22;10647;51.016;3.720;2023-04-25T13:35:30;22.60;68.60
20977;DHT22;10647;51.016;3.720;2023-04-25T13:37:58;27.20;64.10
20977;DHT22;10647;51.016;3.720;2023-04-25T13:40:26;26.30;61.40
20977;DHT22;10647;51.016;3.720;2023-04-25T13:42:54;23.60;64.10
20977;DHT22;10647;51.016;3.720;2023-04-25T13:45:23;21.80;67.50
20977;DHT22;10647;51.016;3.720;2023-04-25T13:47:51;20.50;70.80
20977;DHT22;10647;51.016;3.720;2023-04-25T13:50:18;19.90;72.50
20977;DHT22;10647;51.016;3.720;2023-04-25T13:52:52;19.60;72.80
20977;DHT22;10647;51.016;3.720;2023-04-25T13:55:20;19.10;73.50
20977;DHT22;10647;51.016;3.720;2023-04-25T13:57:47;18.60;73.50
20977;DHT22;10647;51.016;3.720;2023-04-25T14:00:16;19.90;72.20
20977;DHT22;10647;51.016;3.720;2023-04-25T14:02:43;24.00;66.50
20977;DHT22;10647;51.016;3.720;2023-04-25T14:05:12;22.50;66.00
20977;DHT22;10647;51.016;3.720;2023-04-25T14:07:44;24.20;66.50
20977;DHT22;10647;51.016;3.720;2023-04-25T14:10:12;23.90;61.10
20977;DHT22;10647;51.016;3.720;2023-04-25T14:12:44;21.90;62.80
20977;DHT22;10647;51.016;3.720;2023-04-25T14:15:12;21.10;64.40
20977;DHT22;10647;51.016;3.720;2023-04-25T14:17:40;19.90;65.80
20977;DHT22;10647;51.016;3.720;2023-04-25T14:20:09;19.40;67.80
20977;DHT22;10647;51.016;3.720;2023-04-25T14:22:38;23.70;65.10
20977;DHT22;10647;51.016;3.720;2023-04-25T14:25:07;26.10;58.40
20977;DHT22;10647;51.016;3.720;2023-04-25T14:27:35;27.70;56.40
20977;DHT22;10647;51.016;3.720;2023-04-25T14:30:05;30.00;52.30
20977;DHT22;10647;51.016;3.720;2023-04-25T14:32:35;30.20;49.40
20977;DHT22;10647;51.016;3.720;2023-04-25T14:35:03;27.10;51.70
20977;DHT22;10647;51.016;3.720;2023-04-25T14:37:32;28.00;51.70
20977;DHT22;10647;51.016;3.720;2023-04-25T14:40:00;28.40;50.70
20977;DHT22;10647;51.016;3.720;2023-04-25T14:42:27;25.90;51.90
20977;DHT22;10647;51.016;3.720;2023-04-25T14:44:55;26.60;52.20
20977;DHT22;10647;51.016;3.720;2023-04-25T14:47:22;24.50;53.10
20977;DHT22;10647;51.016;3.720;2023-04-25T14:49:50;22.40;55.80
20977;DHT22;10647;51.016;3.720;2023-04-25T14:52:19;23.10;56.80
20977;DHT22;10647;51.016;3.720;2023-04-25T14:54:47;25.50;54.50
20977;DHT22;10647;51.016;3.720;2023-04-25T14:57:15;24.30;52.30
20977;DHT22;10647;51.016;3.720;2023-04-25T14:59:45;22.20;55.10
20977;DHT22;10647;51.016;3.720;2023-04-25T15:02:12;21.10;57.30
20977;DHT22;10647;51.016;3.720;2023-04-25T15:04:40;20.60;58.60
20977;DHT22;10647;51.016;3.720;2023-04-25T15:07:08;19.90;60.20
20977;DHT22;10647;51.016;3.720;2023-04-25T15:09:35;19.60;61.60
20977;DHT22;10647;51.016;3.720;2023-04-25T15:12:03;19.10;63.00
20977;DHT22;10647;51.016;3.720;2023-04-25T15:14:30;18.20;64.30
20977;DHT22;10647;51.016;3.720;2023-04-25T15:16:58;17.60;66.50
20977;DHT22;10647;51.016;3.720;2023-04-25T15:19:25;17.50;67.50
20977;DHT22;10647;51.016;3.720;2023-04-25T15:21:58;17.80;67.50
20977;DHT22;10647;51.016;3.720;2023-04-25T15:24:30;17.80;67.20
20977;DHT22;10647;51.016;3.720;2023-04-25T15:26:58;17.70;67.50
20977;DHT22;10647;51.016;3.720;2023-04-25T15:29:26;17.50;67.00
20977;DHT22;10647;51.016;3.720;2023-04-25T15:31:56;17.20;67.00
20977;DHT22;10647;51.016;3.720;2023-04-25T15:34:23;17.30;67.30
20977;DHT22;10647;51.016;3.720;2023-04-25T15:36:51;16.70;66.50
20977;DHT22;10647;51.016;3.720;2023-04-25T15:39:18;17.70;65.80
20977;DHT22;10647;51.016;3.720;2023-04-25T15:41:46;16.80;67.30
20977;DHT22;10647;51.016;3.720;2023-04-25T15:44:20;16.80;68.70
20977;DHT22;10647;51.016;3.720;2023-04-25T15:46:53;17.20;68.70
20977;DHT22;10647;51.016;3.720;2023-04-25T15:49:21;17.50;68.60
20977;DHT22;10647;51.016;3.720;2023-04-25T15:51:54;17.80;68.70
20977;DHT22;10647;51.016;3.720;2023-04-25T15:54:22;17.50;68.60